Terminal Aerodrome Forecast
Issued by NWS Rapid City, SD

Home | Current Version | Previous Version | Graphics & Text | Print | Product List | Glossary On
Versions: 1 2 3 4 5 6 7 8 9 10 11 12 13 14 15 16 17 18 19
000
FTUS43 KUNR 011915 AAA
TAFRAP
TAF AMD
KRAP 011915Z 0119/0218 03005KT P6SM SCT110 BKN200
     FM012200 36005KT P6SM BKN080
     FM020400 34006KT 3SM BR OVC009=

USA.gov is the U.S. government's official web portal to all federal, state and local government web resources and services.